sensor_id;sensor_type;location;lat;lon;timestamp;temperature;humidity
4245;DHT22;2136;48.502;9.194;2023-08-06T00:02:22;17.50;99.90
4245;DHT22;2136;48.502;9.194;2023-08-06T00:04:49;17.50;99.90
4245;DHT22;2136;48.502;9.194;2023-08-06T00:07:17;17.50;99.90
4245;DHT22;2136;48.502;9.194;2023-08-06T00:09:44;17.40;99.90
4245;DHT22;2136;48.502;9.194;2023-08-06T00:12:11;17.40;99.90
4245;DHT22;2136;48.502;9.194;2023-08-06T00:14:37;17.40;99.90
4245;DHT22;2136;48.502;9.194;2023-08-06T00:17:04;17.30;99.90
4245;DHT22;2136;48.502;9.194;2023-08-06T00:19:31;17.30;99.90
4245;DHT22;2136;48.502;9.194;2023-08-06T00:21:58;17.20;99.90
4245;DHT22;2136;48.502;9.194;2023-08-06T00:24:26;17.20;99.90
4245;DHT22;2136;48.502;9.194;2023-08-06T00:26:53;17.20;99.90
4245;DHT22;2136;48.502;9.194;2023-08-06T00:29:19;17.10;99.90
4245;DHT22;2136;48.502;9.194;2023-08-06T00:31:46;17.10;99.90
4245;DHT22;2136;48.502;9.194;2023-08-06T00:34:13;17.10;99.90
4245;DHT22;2136;48.502;9.194;2023-08-06T00:36:40;17.10;99.90
4245;DHT22;2136;48.502;9.194;2023-08-06T00:39:06;17.00;99.90
4245;DHT22;2136;48.502;9.194;2023-08-06T00:41:35;17.00;99.90
4245;DHT22;2136;48.502;9.194;2023-08-06T00:44:02;17.00;99.90
4245;DHT22;2136;48.502;9.194;2023-08-06T00:46:29;17.00;99.90
4245;DHT22;2136;48.502;9.194;2023-08-06T00:48:56;17.00;99.90
4245;DHT22;2136;48.502;9.194;2023-08-06T00:51:24;16.90;99.90
4245;DHT22;2136;48.502;9.194;2023-08-06T00:53:52;16.90;99.90
4245;DHT22;2136;48.502;9.194;2023-08-06T00:56:19;16.90;99.90
4245;DHT22;2136;48.502;9.194;2023-08-06T00:58:48;16.90;99.90
4245;DHT22;2136;48.502;9.194;2023-08-06T01:01:15;16.80;99.90
4245;DHT22;2136;48.502;9.194;2023-08-06T01:03:42;16.80;99.90
4245;DHT22;2136;48.502;9.194;2023-08-06T01:06:11;16.80;99.90
4245;DHT22;2136;48.502;9.194;2023-08-06T01:08:46;16.80;99.90
4245;DHT22;2136;48.502;9.194;2023-08-06T01:11:23;16.80;99.90
4245;DHT22;2136;48.502;9.194;2023-08-06T01:13:58;16.70;99.90
4245;DHT22;2136;48.502;9.194;2023-08-06T01:16:26;16.70;99.90
4245;DHT22;2136;48.502;9.194;2023-08-06T01:18:53;16.70;99.90
4245;DHT22;2136;48.502;9.194;2023-08-06T01:21:21;16.60;99.90
4245;DHT22;2136;48.502;9.194;2023-08-06T01:23:48;16.60;99.90
4245;DHT22;2136;48.502;9.194;2023-08-06T01:26:22;16.60;99.90
4245;DHT22;2136;48.502;9.194;2023-08-06T01:28:55;16.50;99.90
4245;DHT22;2136;48.502;9.194;2023-08-06T01:31:27;16.50;99.90
4245;DHT22;2136;48.502;9.194;2023-08-06T01:33:54;16.50;99.90
4245;DHT22;2136;48.502;9.194;2023-08-06T01:36:24;16.50;99.90
4245;DHT22;2136;48.502;9.194;2023-08-06T01:38:51;16.40;99.90
4245;DHT22;2136;48.502;9.194;2023-08-06T01:41:19;16.50;99.90
4245;DHT22;2136;48.502;9.194;2023-08-06T01:43:45;16.40;99.90
4245;DHT22;2136;48.502;9.194;2023-08-06T01:46:12;16.40;99.90
4245;DHT22;2136;48.502;9.194;2023-08-06T01:48:39;16.40;99.90
4245;DHT22;2136;48.502;9.194;2023-08-06T01:51:06;16.40;99.90
4245;DHT22;2136;48.502;9.194;2023-08-06T01:53:34;16.40;99.90
4245;DHT22;2136;48.502;9.194;2023-08-06T01:56:01;16.40;99.90
4245;DHT22;2136;48.502;9.194;2023-08-06T01:58:28;16.30;99.90
4245;DHT22;2136;48.502;9.194;2023-08-06T02:00:54;16.30;99.90
4245;DHT22;2136;48.502;9.194;2023-08-06T02:03:21;16.30;99.90
4245;DHT22;2136;48.502;9.194;2023-08-06T02:05:48;16.30;99.90
4245;DHT22;2136;48.502;9.194;2023-08-06T02:08:15;16.20;99.90
4245;DHT22;2136;48.502;9.194;2023-08-06T02:10:43;16.20;99.90
4245;DHT22;2136;48.502;9.194;2023-08-06T02:13:11;16.20;99.90
4245;DHT22;2136;48.502;9.194;2023-08-06T02:15:42;16.10;99.90
4245;DHT22;2136;48.502;9.194;2023-08-06T02:18:09;16.10;99.90
4245;DHT22;2136;48.502;9.194;2023-08-06T02:20:36;16.10;99.90
4245;DHT22;2136;48.502;9.194;2023-08-06T02:23:02;16.00;99.90
4245;DHT22;2136;48.502;9.194;2023-08-06T02:25:29;16.00;99.90
4245;DHT22;2136;48.502;9.194;2023-08-06T02:27:57;16.00;99.90
4245;DHT22;2136;48.502;9.194;2023-08-06T02:30:24;15.90;99.90
4245;DHT22;2136;48.502;9.194;2023-08-06T02:32:51;15.90;99.90
4245;DHT22;2136;48.502;9.194;2023-08-06T02:35:18;15.90;99.90
4245;DHT22;2136;48.502;9.194;2023-08-06T02:37:44;15.90;99.90
4245;DHT22;2136;48.502;9.194;2023-08-06T02:40:11;15.80;99.90
4245;DHT22;2136;48.502;9.194;2023-08-06T02:42:38;15.80;99.90
4245;DHT22;2136;48.502;9.194;2023-08-06T02:45:07;15.70;99.90
4245;DHT22;2136;48.502;9.194;2023-08-06T02:47:34;15.70;99.90
4245;DHT22;2136;48.502;9.194;2023-08-06T02:50:01;15.70;99.90
4245;DHT22;2136;48.502;9.194;2023-08-06T02:52:28;15.70;99.90
4245;DHT22;2136;48.502;9.194;2023-08-06T02:54:55;15.70;99.90
4245;DHT22;2136;48.502;9.194;2023-08-06T02:57:23;15.70;99.90
4245;DHT22;2136;48.502;9.194;2023-08-06T02:59:50;15.80;99.90
4245;DHT22;2136;48.502;9.194;2023-08-06T03:02:18;15.80;99.90
4245;DHT22;2136;48.502;9.194;2023-08-06T03:04:45;15.80;99.90
4245;DHT22;2136;48.502;9.194;2023-08-06T03:07:12;15.90;99.90
4245;DHT22;2136;48.502;9.194;2023-08-06T03:09:38;16.00;99.90
4245;DHT22;2136;48.502;9.194;2023-08-06T03:12:06;15.90;99.90
4245;DHT22;2136;48.502;9.194;2023-08-06T03:14:33;15.90;99.90
4245;DHT22;2136;48.502;9.194;2023-08-06T03:17:00;15.90;99.90
4245;DHT22;2136;48.502;9.194;2023-08-06T03:19:28;15.90;99.90
4245;DHT22;2136;48.502;9.194;2023-08-06T03:21:55;16.00;99.90
4245;DHT22;2136;48.502;9.194;2023-08-06T03:24:21;16.00;99.90
4245;DHT22;2136;48.502;9.194;2023-08-06T03:26:48;16.00;99.90
4245;DHT22;2136;48.502;9.194;2023-08-06T03:29:15;16.00;99.90
4245;DHT22;2136;48.502;9.194;2023-08-06T03:31:42;16.00;99.90
4245;DHT22;2136;48.502;9.194;2023-08-06T03:34:09;16.10;99.90
4245;DHT22;2136;48.502;9.194;2023-08-06T03:36:37;16.10;99.90
4245;DHT22;2136;48.502;9.194;2023-08-06T03:39:03;16.10;99.90
4245;DHT22;2136;48.502;9.194;2023-08-06T03:41:30;16.20;99.90
4245;DHT22;2136;48.502;9.194;2023-08-06T03:43:57;16.20;99.90
4245;DHT22;2136;48.502;9.194;2023-08-06T03:46:24;16.20;99.90
4245;DHT22;2136;48.502;9.194;2023-08-06T03:48:51;16.20;99.90
4245;DHT22;2136;48.502;9.194;2023-08-06T03:51:18;16.30;99.90
4245;DHT22;2136;48.502;9.194;2023-08-06T03:53:46;16.30;99.90
4245;DHT22;2136;48.502;9.194;2023-08-06T03:56:13;16.30;99.90
4245;DHT22;2136;48.502;9.194;2023-08-06T03:58:39;16.30;99.90
4245;DHT22;2136;48.502;9.194;2023-08-06T04:01:06;16.30;99.90
4245;DHT22;2136;48.502;9.194;2023-08-06T04:03:34;16.30;99.90
4245;DHT22;2136;48.502;9.194;2023-08-06T04:06:02;16.30;99.90
4245;DHT22;2136;48.502;9.194;2023-08-06T04:08:29;16.30;99.90
4245;DHT22;2136;48.502;9.194;2023-08-06T04:10:57;16.20;99.90
4245;DHT22;2136;48.502;9.194;2023-08-06T04:13:24;16.30;99.90
4245;DHT22;2136;48.502;9.194;2023-08-06T04:15:50;16.20;99.90
4245;DHT22;2136;48.502;9.194;2023-08-06T04:18:17;16.20;99.90
4245;DHT22;2136;48.502;9.194;2023-08-06T04:20:44;16.10;99.90
4245;DHT22;2136;48.502;9.194;2023-08-06T04:23:11;16.10;99.90
4245;DHT22;2136;48.502;9.194;2023-08-06T04:25:38;16.00;99.90
4245;DHT22;2136;48.502;9.194;2023-08-06T04:28:06;16.00;99.90
4245;DHT22;2136;48.502;9.194;2023-08-06T04:30:33;15.90;99.90
4245;DHT22;2136;48.502;9.194;2023-08-06T04:33:00;15.90;99.90
4245;DHT22;2136;48.502;9.194;2023-08-06T04:35:27;15.90;99.90
4245;DHT22;2136;48.502;9.194;2023-08-06T04:37:54;15.90;99.90
4245;DHT22;2136;48.502;9.194;2023-08-06T04:40:20;16.00;99.90
4245;DHT22;2136;48.502;9.194;2023-08-06T04:42:47;16.00;99.90
4245;DHT22;2136;48.502;9.194;2023-08-06T04:45:15;16.00;99.90
4245;DHT22;2136;48.502;9.194;2023-08-06T04:47:42;15.90;99.90
4245;DHT22;2136;48.502;9.194;2023-08-06T04:50:09;16.00;99.90
4245;DHT22;2136;48.502;9.194;2023-08-06T04:52:37;15.90;99.90
4245;DHT22;2136;48.502;9.194;2023-08-06T04:55:05;15.80;99.90
4245;DHT22;2136;48.502;9.194;2023-08-06T04:57:32;15.80;99.90
4245;DHT22;2136;48.502;9.194;2023-08-06T04:59:59;15.80;99.90
4245;DHT22;2136;48.502;9.194;2023-08-06T05:02:27;16.00;99.90
4245;DHT22;2136;48.502;9.194;2023-08-06T05:04:54;15.80;99.90
4245;DHT22;2136;48.502;9.194;2023-08-06T05:07:20;15.80;99.90
4245;DHT22;2136;48.502;9.194;2023-08-06T05:09:47;15.80;99.90
4245;DHT22;2136;48.502;9.194;2023-08-06T05:12:14;15.80;99.90
4245;DHT22;2136;48.502;9.194;2023-08-06T05:14:41;15.80;99.90
4245;DHT22;2136;48.502;9.194;2023-08-06T05:17:08;15.80;99.90
4245;DHT22;2136;48.502;9.194;2023-08-06T05:19:36;15.90;99.90
4245;DHT22;2136;48.502;9.194;2023-08-06T05:22:03;15.90;99.90
4245;DHT22;2136;48.502;9.194;2023-08-06T05:24:30;15.90;99.90
4245;DHT22;2136;48.502;9.194;2023-08-06T05:26:57;16.00;99.90
4245;DHT22;2136;48.502;9.194;2023-08-06T05:29:23;16.00;99.90
4245;DHT22;2136;48.502;9.194;2023-08-06T05:31:50;16.10;99.90
4245;DHT22;2136;48.502;9.194;2023-08-06T05:34:17;16.10;99.90
4245;DHT22;2136;48.502;9.194;2023-08-06T05:36:45;16.10;99.90
4245;DHT22;2136;48.502;9.194;2023-08-06T05:39:12;16.10;99.90
4245;DHT22;2136;48.502;9.194;2023-08-06T05:41:39;16.20;99.90
4245;DHT22;2136;48.502;9.194;2023-08-06T05:44:05;16.20;99.90
4245;DHT22;2136;48.502;9.194;2023-08-06T05:46:32;16.30;99.90
4245;DHT22;2136;48.502;9.194;2023-08-06T05:48:59;16.30;99.90
4245;DHT22;2136;48.502;9.194;2023-08-06T05:51:27;16.50;99.90
4245;DHT22;2136;48.502;9.194;2023-08-06T05:53:55;16.40;99.90
4245;DHT22;2136;48.502;9.194;2023-08-06T05:56:21;16.50;99.90
4245;DHT22;2136;48.502;9.194;2023-08-06T05:58:48;16.60;99.90
4245;DHT22;2136;48.502;9.194;2023-08-06T06:01:18;16.60;99.90
4245;DHT22;2136;48.502;9.194;2023-08-06T06:03:45;16.70;99.90
4245;DHT22;2136;48.502;9.194;2023-08-06T06:06:12;16.60;99.90
4245;DHT22;2136;48.502;9.194;2023-08-06T06:08:38;16.70;99.90
4245;DHT22;2136;48.502;9.194;2023-08-06T06:11:07;16.70;99.90
4245;DHT22;2136;48.502;9.194;2023-08-06T06:13:33;16.70;99.90
4245;DHT22;2136;48.502;9.194;2023-08-06T06:16:01;16.60;99.90
4245;DHT22;2136;48.502;9.194;2023-08-06T06:18:28;16.60;99.90
4245;DHT22;2136;48.502;9.194;2023-08-06T06:20:55;16.60;99.90
4245;DHT22;2136;48.502;9.194;2023-08-06T06:23:22;16.70;99.90
4245;DHT22;2136;48.502;9.194;2023-08-06T06:25:49;16.60;99.90
4245;DHT22;2136;48.502;9.194;2023-08-06T06:28:18;16.70;99.90
4245;DHT22;2136;48.502;9.194;2023-08-06T06:30:45;16.70;99.90
4245;DHT22;2136;48.502;9.194;2023-08-06T06:33:12;16.80;99.90
4245;DHT22;2136;48.502;9.194;2023-08-06T06:35:39;16.80;99.90
4245;DHT22;2136;48.502;9.194;2023-08-06T06:38:05;16.80;99.90
4245;DHT22;2136;48.502;9.194;2023-08-06T06:40:32;16.80;99.80
4245;DHT22;2136;48.502;9.194;2023-08-06T06:42:59;16.80;99.90
4245;DHT22;2136;48.502;9.194;2023-08-06T06:45:27;16.80;99.90
4245;DHT22;2136;48.502;9.194;2023-08-06T06:47:54;16.80;99.90
4245;DHT22;2136;48.502;9.194;2023-08-06T06:50:21;16.70;99.90
4245;DHT22;2136;48.502;9.194;2023-08-06T06:52:48;16.80;99.90
4245;DHT22;2136;48.502;9.194;2023-08-06T06:55:15;16.90;99.90
4245;DHT22;2136;48.502;9.194;2023-08-06T06:57:41;16.90;99.90
4245;DHT22;2136;48.502;9.194;2023-08-06T07:00:09;17.00;99.90
4245;DHT22;2136;48.502;9.194;2023-08-06T07:02:37;17.00;99.50
4245;DHT22;2136;48.502;9.194;2023-08-06T07:05:05;17.00;99.30
4245;DHT22;2136;48.502;9.194;2023-08-06T07:07:32;17.00;99.90
4245;DHT22;2136;48.502;9.194;2023-08-06T07:09:59;17.00;99.90
4245;DHT22;2136;48.502;9.194;2023-08-06T07:12:26;17.00;99.90
4245;DHT22;2136;48.502;9.194;2023-08-06T07:14:53;17.10;99.60
4245;DHT22;2136;48.502;9.194;2023-08-06T07:17:20;17.10;99.20
4245;DHT22;2136;48.502;9.194;2023-08-06T07:19:48;17.30;99.30
4245;DHT22;2136;48.502;9.194;2023-08-06T07:22:15;17.40;99.40
4245;DHT22;2136;48.502;9.194;2023-08-06T07:24:41;17.40;98.90
4245;DHT22;2136;48.502;9.194;2023-08-06T07:27:08;17.40;97.70
4245;DHT22;2136;48.502;9.194;2023-08-06T07:29:35;17.30;96.50
4245;DHT22;2136;48.502;9.194;2023-08-06T07:32:02;17.10;95.90
4245;DHT22;2136;48.502;9.194;2023-08-06T07:34:29;16.90;96.20
4245;DHT22;2136;48.502;9.194;2023-08-06T07:36:57;16.80;97.60
4245;DHT22;2136;48.502;9.194;2023-08-06T07:39:24;16.70;98.90
4245;DHT22;2136;48.502;9.194;2023-08-06T07:41:50;16.70;99.90
4245;DHT22;2136;48.502;9.194;2023-08-06T07:44:17;16.60;99.90
4245;DHT22;2136;48.502;9.194;2023-08-06T07:46:44;16.60;99.90
4245;DHT22;2136;48.502;9.194;2023-08-06T07:49:11;16.60;99.90
4245;DHT22;2136;48.502;9.194;2023-08-06T07:51:38;16.70;99.90
4245;DHT22;2136;48.502;9.194;2023-08-06T07:54:06;16.70;99.90
4245;DHT22;2136;48.502;9.194;2023-08-06T07:56:33;16.80;99.90
4245;DHT22;2136;48.502;9.194;2023-08-06T07:59:01;16.80;99.90
4245;DHT22;2136;48.502;9.194;2023-08-06T08:01:28;16.90;99.90
4245;DHT22;2136;48.502;9.194;2023-08-06T08:03:55;16.90;99.90
4245;DHT22;2136;48.502;9.194;2023-08-06T08:06:21;16.90;99.90
4245;DHT22;2136;48.502;9.194;2023-08-06T08:08:48;16.90;99.90
4245;DHT22;2136;48.502;9.194;2023-08-06T08:11:16;16.90;99.90
4245;DHT22;2136;48.502;9.194;2023-08-06T08:13:44;17.00;99.90
4245;DHT22;2136;48.502;9.194;2023-08-06T08:16:10;17.00;99.90
4245;DHT22;2136;48.502;9.194;2023-08-06T08:18:37;17.00;99.60
4245;DHT22;2136;48.502;9.194;2023-08-06T08:21:04;17.10;99.50
4245;DHT22;2136;48.502;9.194;2023-08-06T08:23:31;17.10;99.00
4245;DHT22;2136;48.502;9.194;2023-08-06T08:25:58;17.10;99.00
4245;DHT22;2136;48.502;9.194;2023-08-06T08:28:30;17.20;97.20
4245;DHT22;2136;48.502;9.194;2023-08-06T08:30:56;17.10;97.00
4245;DHT22;2136;48.502;9.194;2023-08-06T08:33:23;17.10;96.20
4245;DHT22;2136;48.502;9.194;2023-08-06T08:35:50;17.00;96.60
4245;DHT22;2136;48.502;9.194;2023-08-06T08:38:17;16.90;96.90
4245;DHT22;2136;48.502;9.194;2023-08-06T08:40:46;16.90;97.10
4245;DHT22;2136;48.502;9.194;2023-08-06T08:43:14;16.90;97.50
4245;DHT22;2136;48.502;9.194;2023-08-06T08:45:43;16.90;98.60
4245;DHT22;2136;48.502;9.194;2023-08-06T08:48:12;16.90;99.50
4245;DHT22;2136;48.502;9.194;2023-08-06T08:50:42;17.20;99.90
4245;DHT22;2136;48.502;9.194;2023-08-06T08:53:11;17.30;99.40
4245;DHT22;2136;48.502;9.194;2023-08-06T08:55:38;17.50;98.60
4245;DHT22;2136;48.502;9.194;2023-08-06T08:58:05;17.50;97.40
4245;DHT22;2136;48.502;9.194;2023-08-06T09:00:32;17.60;95.80
4245;DHT22;2136;48.502;9.194;2023-08-06T09:03:05;17.50;94.30
4245;DHT22;2136;48.502;9.194;2023-08-06T09:05:32;17.50;93.90
4245;DHT22;2136;48.502;9.194;2023-08-06T09:08:02;17.40;93.40
4245;DHT22;2136;48.502;9.194;2023-08-06T09:10:30;17.30;94.40
4245;DHT22;2136;48.502;9.194;2023-08-06T09:12:57;17.30;94.00
4245;DHT22;2136;48.502;9.194;2023-08-06T09:15:27;17.30;94.00
4245;DHT22;2136;48.502;9.194;2023-08-06T09:17:54;17.30;94.20
4245;DHT22;2136;48.502;9.194;2023-08-06T09:20:22;17.20;95.20
4245;DHT22;2136;48.502;9.194;2023-08-06T09:22:49;17.30;96.90
4245;DHT22;2136;48.502;9.194;2023-08-06T09:25:21;17.60;99.40
4245;DHT22;2136;48.502;9.194;2023-08-06T09:27:50;18.00;99.00
4245;DHT22;2136;48.502;9.194;2023-08-06T09:30:29;18.30;95.10
4245;DHT22;2136;48.502;9.194;2023-08-06T09:32:56;18.60;92.50
4245;DHT22;2136;48.502;9.194;2023-08-06T09:35:24;18.80;91.40
4245;DHT22;2136;48.502;9.194;2023-08-06T09:37:51;18.90;90.10
4245;DHT22;2136;48.502;9.194;2023-08-06T09:40:25;19.20;89.10
4245;DHT22;2136;48.502;9.194;2023-08-06T09:42:53;19.40;85.60
4245;DHT22;2136;48.502;9.194;2023-08-06T09:45:20;19.50;82.10
4245;DHT22;2136;48.502;9.194;2023-08-06T09:47:48;19.50;79.80
4245;DHT22;2136;48.502;9.194;2023-08-06T09:50:16;19.40;79.20
4245;DHT22;2136;48.502;9.194;2023-08-06T09:52:45;19.30;80.10
4245;DHT22;2136;48.502;9.194;2023-08-06T09:55:13;19.00;80.90
4245;DHT22;2136;48.502;9.194;2023-08-06T09:57:40;18.70;82.40
4245;DHT22;2136;48.502;9.194;2023-08-06T10:00:08;18.50;84.30
4245;DHT22;2136;48.502;9.194;2023-08-06T10:02:37;18.40;87.00
4245;DHT22;2136;48.502;9.194;2023-08-06T10:05:05;18.30;88.90
4245;DHT22;2136;48.502;9.194;2023-08-06T10:07:32;18.30;90.70
4245;DHT22;2136;48.502;9.194;2023-08-06T10:10:02;18.30;91.30
4245;DHT22;2136;48.502;9.194;2023-08-06T10:12:32;18.20;91.20
4245;DHT22;2136;48.502;9.194;2023-08-06T10:15:03;18.00;91.80
4245;DHT22;2136;48.502;9.194;2023-08-06T10:17:31;17.80;91.80
4245;DHT22;2136;48.502;9.194;2023-08-06T10:19:59;17.60;92.40
4245;DHT22;2136;48.502;9.194;2023-08-06T10:22:26;17.40;93.40
4245;DHT22;2136;48.502;9.194;2023-08-06T10:24:54;17.20;94.40
4245;DHT22;2136;48.502;9.194;2023-08-06T10:27:28;17.10;95.80
4245;DHT22;2136;48.502;9.194;2023-08-06T10:29:56;17.00;97.10
4245;DHT22;2136;48.502;9.194;2023-08-06T10:32:46;16.90;99.30
4245;DHT22;2136;48.502;9.194;2023-08-06T10:35:28;16.90;99.90
4245;DHT22;2136;48.502;9.194;2023-08-06T10:37:58;17.00;99.90
4245;DHT22;2136;48.502;9.194;2023-08-06T10:40:26;17.10;99.90
4245;DHT22;2136;48.502;9.194;2023-08-06T10:42:54;17.10;99.90
4245;DHT22;2136;48.502;9.194;2023-08-06T10:45:21;17.20;99.90
4245;DHT22;2136;48.502;9.194;2023-08-06T10:47:49;17.20;99.90
4245;DHT22;2136;48.502;9.194;2023-08-06T10:50:16;17.20;99.90
4245;DHT22;2136;48.502;9.194;2023-08-06T10:52:44;17.40;99.90
4245;DHT22;2136;48.502;9.194;2023-08-06T10:55:11;17.30;99.90
4245;DHT22;2136;48.502;9.194;2023-08-06T10:57:39;17.40;99.90
4245;DHT22;2136;48.502;9.194;2023-08-06T11:00:09;17.50;99.90
4245;DHT22;2136;48.502;9.194;2023-08-06T11:02:38;17.70;99.90
4245;DHT22;2136;48.502;9.194;2023-08-06T11:05:06;17.90;99.90
4245;DHT22;2136;48.502;9.194;2023-08-06T11:07:33;18.20;99.90
4245;DHT22;2136;48.502;9.194;2023-08-06T11:10:04;18.30;99.40
4245;DHT22;2136;48.502;9.194;2023-08-06T11:12:31;18.30;97.30
4245;DHT22;2136;48.502;9.194;2023-08-06T11:15:02;18.30;95.60
4245;DHT22;2136;48.502;9.194;2023-08-06T11:17:32;18.10;95.40
4245;DHT22;2136;48.502;9.194;2023-08-06T11:20:00;17.90;95.50
4245;DHT22;2136;48.502;9.194;2023-08-06T11:22:27;17.70;95.10
4245;DHT22;2136;48.502;9.194;2023-08-06T11:24:54;17.50;96.70
4245;DHT22;2136;48.502;9.194;2023-08-06T11:27:21;17.40;98.40
4245;DHT22;2136;48.502;9.194;2023-08-06T11:29:48;17.30;99.50
4245;DHT22;2136;48.502;9.194;2023-08-06T11:32:15;17.20;99.90
4245;DHT22;2136;48.502;9.194;2023-08-06T11:34:43;17.10;99.90
4245;DHT22;2136;48.502;9.194;2023-08-06T11:37:10;17.10;99.90
4245;DHT22;2136;48.502;9.194;2023-08-06T11:39:38;16.90;99.90
4245;DHT22;2136;48.502;9.194;2023-08-06T11:42:06;16.80;99.90
4245;DHT22;2136;48.502;9.194;2023-08-06T11:44:34;16.70;99.90
4245;DHT22;2136;48.502;9.194;2023-08-06T11:47:02;16.70;99.90
4245;DHT22;2136;48.502;9.194;2023-08-06T11:49:38;16.60;99.90
4245;DHT22;2136;48.502;9.194;2023-08-06T11:52:14;16.60;99.90
4245;DHT22;2136;48.502;9.194;2023-08-06T11:54:41;16.50;99.90
4245;DHT22;2136;48.502;9.194;2023-08-06T11:57:08;16.50;99.90
4245;DHT22;2136;48.502;9.194;2023-08-06T11:59:37;16.60;99.90
4245;DHT22;2136;48.502;9.194;2023-08-06T12:02:04;16.70;99.90
4245;DHT22;2136;48.502;9.194;2023-08-06T12:04:32;16.80;99.90
4245;DHT22;2136;48.502;9.194;2023-08-06T12:07:18;16.90;99.90
4245;DHT22;2136;48.502;9.194;2023-08-06T12:09:45;16.90;99.90
4245;DHT22;2136;48.502;9.194;2023-08-06T12:12:12;17.00;99.90
4245;DHT22;2136;48.502;9.194;2023-08-06T12:14:39;17.10;99.90
4245;DHT22;2136;48.502;9.194;2023-08-06T12:17:06;17.20;99.90
4245;DHT22;2136;48.502;9.194;2023-08-06T12:19:32;17.20;99.90
4245;DHT22;2136;48.502;9.194;2023-08-06T12:21:59;17.30;99.90
4245;DHT22;2136;48.502;9.194;2023-08-06T12:24:27;17.20;99.90
4245;DHT22;2136;48.502;9.194;2023-08-06T12:26:57;17.20;99.90
4245;DHT22;2136;48.502;9.194;2023-08-06T12:29:24;17.10;99.90
4245;DHT22;2136;48.502;9.194;2023-08-06T12:31:51;17.10;99.90
4245;DHT22;2136;48.502;9.194;2023-08-06T12:34:18;17.20;99.90
4245;DHT22;2136;48.502;9.194;2023-08-06T12:36:45;17.20;99.90
4245;DHT22;2136;48.502;9.194;2023-08-06T12:39:11;17.30;99.90
4245;DHT22;2136;48.502;9.194;2023-08-06T12:41:40;17.30;99.90
4245;DHT22;2136;48.502;9.194;2023-08-06T12:44:06;17.40;99.90
4245;DHT22;2136;48.502;9.194;2023-08-06T12:46:33;17.60;98.80
4245;DHT22;2136;48.502;9.194;2023-08-06T12:49:00;17.60;96.80
4245;DHT22;2136;48.502;9.194;2023-08-06T12:51:27;17.60;96.90
4245;DHT22;2136;48.502;9.194;2023-08-06T12:53:54;17.70;95.40
4245;DHT22;2136;48.502;9.194;2023-08-06T12:56:21;17.70;94.80
4245;DHT22;2136;48.502;9.194;2023-08-06T12:58:49;17.60;91.70
4245;DHT22;2136;48.502;9.194;2023-08-06T13:01:16;17.50;90.80
4245;DHT22;2136;48.502;9.194;2023-08-06T13:03:42;17.40;91.90
4245;DHT22;2136;48.502;9.194;2023-08-06T13:06:09;17.30;92.10
4245;DHT22;2136;48.502;9.194;2023-08-06T13:08:37;17.30;92.30
4245;DHT22;2136;48.502;9.194;2023-08-06T13:11:04;17.30;92.40
4245;DHT22;2136;48.502;9.194;2023-08-06T13:13:31;17.20;92.50
4245;DHT22;2136;48.502;9.194;2023-08-06T13:15:59;17.20;91.40
4245;DHT22;2136;48.502;9.194;2023-08-06T13:18:26;17.20;92.40
4245;DHT22;2136;48.502;9.194;2023-08-06T13:20:54;17.30;92.90
4245;DHT22;2136;48.502;9.194;2023-08-06T13:23:21;17.50;92.20
4245;DHT22;2136;48.502;9.194;2023-08-06T13:25:48;17.70;90.00
4245;DHT22;2136;48.502;9.194;2023-08-06T13:28:15;17.70;86.40
4245;DHT22;2136;48.502;9.194;2023-08-06T13:30:42;17.70;86.60
4245;DHT22;2136;48.502;9.194;2023-08-06T13:33:10;17.70;84.90
4245;DHT22;2136;48.502;9.194;2023-08-06T13:35:37;17.70;83.30
4245;DHT22;2136;48.502;9.194;2023-08-06T13:38:04;17.60;83.60
4245;DHT22;2136;48.502;9.194;2023-08-06T13:40:33;17.50;84.60
4245;DHT22;2136;48.502;9.194;2023-08-06T13:43:00;17.60;85.40
4245;DHT22;2136;48.502;9.194;2023-08-06T13:45:27;17.70;86.10
4245;DHT22;2136;48.502;9.194;2023-08-06T13:47:54;17.70;84.50
4245;DHT22;2136;48.502;9.194;2023-08-06T13:50:22;17.70;85.60
4245;DHT22;2136;48.502;9.194;2023-08-06T13:52:51;17.80;86.10
4245;DHT22;2136;48.502;9.194;2023-08-06T13:55:18;17.80;85.80
4245;DHT22;2136;48.502;9.194;2023-08-06T13:57:45;17.90;83.50
4245;DHT22;2136;48.502;9.194;2023-08-06T14:00:12;17.80;83.10
4245;DHT22;2136;48.502;9.194;2023-08-06T14:02:39;17.80;84.00
4245;DHT22;2136;48.502;9.194;2023-08-06T14:05:07;17.80;84.20
4245;DHT22;2136;48.502;9.194;2023-08-06T14:07:35;17.80;85.20
4245;DHT22;2136;48.502;9.194;2023-08-06T14:10:02;17.90;86.20
4245;DHT22;2136;48.502;9.194;2023-08-06T14:12:30;18.00;86.40
4245;DHT22;2136;48.502;9.194;2023-08-06T14:14:57;18.10;86.40
4245;DHT22;2136;48.502;9.194;2023-08-06T14:17:24;18.10;85.60
4245;DHT22;2136;48.502;9.194;2023-08-06T14:19:51;18.20;85.00
4245;DHT22;2136;48.502;9.194;2023-08-06T14:22:18;18.20;84.00
4245;DHT22;2136;48.502;9.194;2023-08-06T14:24:46;18.20;84.40
4245;DHT22;2136;48.502;9.194;2023-08-06T14:27:13;18.30;82.60
4245;DHT22;2136;48.502;9.194;2023-08-06T14:29:40;18.20;81.90
4245;DHT22;2136;48.502;9.194;2023-08-06T14:32:09;18.20;80.70
4245;DHT22;2136;48.502;9.194;2023-08-06T14:34:36;18.10;79.10
4245;DHT22;2136;48.502;9.194;2023-08-06T14:37:03;17.90;79.40
4245;DHT22;2136;48.502;9.194;2023-08-06T14:39:30;17.70;81.50
4245;DHT22;2136;48.502;9.194;2023-08-06T14:41:58;17.60;83.70
4245;DHT22;2136;48.502;9.194;2023-08-06T14:44:25;17.50;86.40
4245;DHT22;2136;48.502;9.194;2023-08-06T14:46:51;17.50;86.10
4245;DHT22;2136;48.502;9.194;2023-08-06T14:49:18;17.40;86.10
4245;DHT22;2136;48.502;9.194;2023-08-06T14:51:45;17.50;87.40
4245;DHT22;2136;48.502;9.194;2023-08-06T14:54:12;17.50;84.40
4245;DHT22;2136;48.502;9.194;2023-08-06T14:56:39;17.50;84.90
4245;DHT22;2136;48.502;9.194;2023-08-06T14:59:07;17.50;83.10
4245;DHT22;2136;48.502;9.194;2023-08-06T15:01:34;17.60;81.90
4245;DHT22;2136;48.502;9.194;2023-08-06T15:04:00;17.60;80.30
4245;DHT22;2136;48.502;9.194;2023-08-06T15:06:27;17.70;80.40
4245;DHT22;2136;48.502;9.194;2023-08-06T15:08:54;17.70;78.90
4245;DHT22;2136;48.502;9.194;2023-08-06T15:11:23;17.80;79.30
4245;DHT22;2136;48.502;9.194;2023-08-06T15:13:51;17.80;78.00
4245;DHT22;2136;48.502;9.194;2023-08-06T15:16:19;17.80;78.40
4245;DHT22;2136;48.502;9.194;2023-08-06T15:18:46;17.70;78.90
4245;DHT22;2136;48.502;9.194;2023-08-06T15:21:14;17.70;78.50
4245;DHT22;2136;48.502;9.194;2023-08-06T15:23:41;17.60;78.50
4245;DHT22;2136;48.502;9.194;2023-08-06T15:26:08;17.60;77.60
4245;DHT22;2136;48.502;9.194;2023-08-06T15:28:35;17.60;78.10
4245;DHT22;2136;48.502;9.194;2023-08-06T15:31:02;17.60;77.20
4245;DHT22;2136;48.502;9.194;2023-08-06T15:33:32;17.70;76.20
4245;DHT22;2136;48.502;9.194;2023-08-06T15:36:00;17.70;74.60
4245;DHT22;2136;48.502;9.194;2023-08-06T15:38:27;17.60;75.10
4245;DHT22;2136;48.502;9.194;2023-08-06T15:40:53;17.60;75.80
4245;DHT22;2136;48.502;9.194;2023-08-06T15:43:20;17.60;74.00
4245;DHT22;2136;48.502;9.194;2023-08-06T15:45:47;17.60;73.80
4245;DHT22;2136;48.502;9.194;2023-08-06T15:48:14;17.60;72.80
4245;DHT22;2136;48.502;9.194;2023-08-06T15:50:42;17.60;72.50
4245;DHT22;2136;48.502;9.194;2023-08-06T15:53:09;17.60;73.00
4245;DHT22;2136;48.502;9.194;2023-08-06T15:55:37;17.70;72.60
4245;DHT22;2136;48.502;9.194;2023-08-06T15:58:04;17.70;71.70
4245;DHT22;2136;48.502;9.194;2023-08-06T16:00:32;17.70;72.10
4245;DHT22;2136;48.502;9.194;2023-08-06T16:02:59;17.70;71.50
4245;DHT22;2136;48.502;9.194;2023-08-06T16:05:26;17.60;71.10